Nibulon 1 — UUAS4 — position and weather

sailwx.info

Track history (hours):
 
Tides and Currents Weather Stations Pressure Air Temp Water Temp Dewpoint Dewpoint Depression Visibility Wind Speed Wind Dir Waves Ship Positions

Nibulon 1

Last reported at 2016-Jun-28 04:33 UTC. Time now 2016-Jun-28 06:04 UTC.
Position N 46°57' E 031°59'.

Length 38 m; draft 2.6 m.

Type: Tug. MMSI: 272641000.

Date/timePositionNaut miles runAvg speedWind from/ knotsBaromVisibWave heightAir tempDewpointWater temp
2016-Jun-28 04:33N 46°57' E 031°59'0 0.0
2016-Jun-28 03:33N 46°57' E 031°59'0 0.0
2016-Jun-28 02:33N 46°57' E 031°59'0 0.0
2016-Jun-28 01:33N 46°57' E 031°59'0 0.1
2016-Jun-28 00:33N 46°57' E 031°59'0 0.1
2016-Jun-27 23:33N 46°57' E 031°59'0 0.0
2016-Jun-27 22:33N 46°57' E 031°59'0 0.1
2016-Jun-27 21:33N 46°57' E 031°59'0 0.0
2016-Jun-27 20:33N 46°57' E 031°59'0 0.1
2016-Jun-27 19:33N 46°57' E 031°59'0 0.2
2016-Jun-27 18:33N 46°57' E 031°59'0 0.2
2016-Jun-27 17:33N 46°57' E 031°59'0 0.1
2016-Jun-27 16:33N 46°57' E 031°59'0 0.1
2016-Jun-27 15:33N 46°57' E 031°59'0 0.1
2016-Jun-27 14:33N 46°57' E 031°59'0 0.0
2016-Jun-27 13:33N 46°57' E 031°59'0 0.0
2016-Jun-27 12:33N 46°57' E 031°59'0 0.0
2016-Jun-27 11:33N 46°57' E 031°59'0 0.0
2016-Jun-27 10:33N 46°57' E 031°59'0 0.1
2016-Jun-27 09:33N 46°57' E 031°59'0 0.2
2016-Jun-27 08:33N 46°57' E 031°59'0 0.0
2016-Jun-27 07:33N 46°57' E 031°59'0 0.0
2016-Jun-27 06:33N 46°57' E 031°59'0 0.0
2016-Jun-27 05:33N 46°57' E 031°59'0 0.2
2016-Jun-27 04:34N 46°56' E 031°59'0 0.4
2016-Jun-27 03:33N 46°56' E 031°59'3 3.5
2016-Jun-27 02:33N 46°53' E 031°59'5 4.9
2016-Jun-27 01:33N 46°49' E 031°54'4 4.3
2016-Jun-27 00:33N 46°45' E 031°54'4 4.4
2016-Jun-26 23:33N 46°41' E 031°56'5 4.6
2016-Jun-26 22:33N 46°37' E 031°52'5 4.9
2016-Jun-26 21:33N 46°35' E 031°45'5 5.0
2016-Jun-26 20:33N 46°35' E 031°38'2 2.2
2016-Jun-26 19:33N 46°36' E 031°35'4 3.8
2016-Jun-26 18:34N 46°36' E 031°30'6 6.5
2016-Jun-26 17:33N 46°34' E 031°21'5 4.8
2016-Jun-26 16:33N 46°35' E 031°14'0 0.1
2016-Jun-26 15:33N 46°35' E 031°14'1 0.6
2016-Jun-26 14:33N 46°34' E 031°13'2 2.1
2016-Jun-26 13:33N 46°34' E 031°17'4 3.9
2016-Jun-26 12:33N 46°34' E 031°22'4 3.8
2016-Jun-26 11:30N 46°36' E 031°28'3 3.4
2016-Jun-26 10:33N 46°35' E 031°32'3 2.1
2016-Jun-26 09:17N 46°37' E 031°35'3 4.4
2016-Jun-26 08:33N 46°35' E 031°31'5 5.1
2016-Jun-26 07:33N 46°35' E 031°24'6 5.9
2016-Jun-26 06:33N 46°35' E 031°15'1 1.4
2016-Jun-26 05:33N 46°34' E 031°13'0 0.0
2016-Jun-26 04:33N 46°34' E 031°13'0 0.0
2016-Jun-26 03:33N 46°34' E 031°13'0 0.0
2016-Jun-26 02:33N 46°34' E 031°13'0 0.0
2016-Jun-26 01:33N 46°34' E 031°13'0 0.0
2016-Jun-26 00:33N 46°34' E 031°13'0 0.0
2016-Jun-25 23:33N 46°34' E 031°13'0 0.0
2016-Jun-25 22:33N 46°34' E 031°13'0 0.0
2016-Jun-25 21:33N 46°34' E 031°13'0 0.0
2016-Jun-25 20:33N 46°35' E 031°13'0 0.0
2016-Jun-25 19:33N 46°35' E 031°13'0 0.0
2016-Jun-25 18:33N 46°34' E 031°13'0 0.1
2016-Jun-25 17:26N 46°34' E 031°13'3 3.2
2016-Jun-25 16:33N 46°34' E 031°17'27 3.0
2016-Jun-25 07:33N 46°45' E 031°54'4 3.6
2016-Jun-25 06:33N 46°49' E 031°54'4 4.1
2016-Jun-25 05:33N 46°52' E 031°58'4 4.0
2016-Jun-25 04:33N 46°55' E 032°01'2 2.0
2016-Jun-25 03:33N 46°56' E 031°59'0 0.2
2016-Jun-25 02:31N 46°57' E 031°59'0 0.0
2016-Jun-25 01:31N 46°57' E 031°59'0 0.0
2016-Jun-25 00:31N 46°57' E 031°59'0 0.0
2016-Jun-24 23:31N 46°57' E 031°59'0 0.0
2016-Jun-24 22:32N 46°57' E 031°59'0 0.0
2016-Jun-24 21:32N 46°57' E 031°59'0 0.0
2016-Jun-24 20:32N 46°57' E 031°59'0 0.0
2016-Jun-24 19:32N 46°57' E 031°59'0 0.5
2016-Jun-24 18:33N 46°56' E 031°59'0 0.1
2016-Jun-24 17:33N 46°56' E 031°59'0 0.0
2016-Jun-24 16:33N 46°56' E 031°59'0 0.0
2016-Jun-24 15:33N 46°56' E 031°59'0 0.0
2016-Jun-24 14:33N 46°56' E 031°59'0 0.3
2016-Jun-24 13:30N 46°57' E 031°59'0 0.0
2016-Jun-24 12:33N 46°57' E 031°59'0 0.0
2016-Jun-24 11:15N 46°57' E 031°59'0 0.2
2016-Jun-24 10:31N 46°57' E 031°59'0 0.0
2016-Jun-24 09:31N 46°57' E 031°59'0 0.0
2016-Jun-24 08:31N 46°57' E 031°59'0 0.4
2016-Jun-24 07:31N 46°56' E 031°59'0 0.1
2016-Jun-24 04:33N 46°57' E 031°59'0 0.0
2016-Jun-24 03:30N 46°57' E 031°59'0 0.0
2016-Jun-24 02:33N 46°57' E 031°59'0 0.0
2016-Jun-24 01:33N 46°57' E 031°59'0 0.0
2016-Jun-24 00:33N 46°57' E 031°59'0 0.0
2016-Jun-23 23:30N 46°57' E 031°59'0 0.0
2016-Jun-23 22:33N 46°57' E 031°59'0 0.0
2016-Jun-23 21:33N 46°57' E 031°59'0 0.0
2016-Jun-23 20:33N 46°57' E 031°59'0 0.0
2016-Jun-23 19:33N 46°57' E 031°59'2 1.8
2016-Jun-23 18:33N 46°56' E 032°01'5 5.0
2016-Jun-23 17:33N 46°51' E 031°57'5 4.9
2016-Jun-23 16:33N 46°47' E 031°53'5 4.7
2016-Jun-23 15:33N 46°43' E 031°56'5 4.9
2016-Jun-23 14:33N 46°38' E 031°55'5 4.9
2016-Jun-23 13:33N 46°36' E 031°49'5 4.6
2016-Jun-23 12:29N 46°35' E 031°41'4 4.7
2016-Jun-23 11:33N 46°36' E 031°35'4 3.5
2016-Jun-23 10:33N 46°36' E 031°30'4 4.3
2016-Jun-23 09:33N 46°35' E 031°24'5 4.7
2016-Jun-23 08:33N 46°34' E 031°17'3 2.7
2016-Jun-23 07:34N 46°34' E 031°13'1 0.3
2016-Jun-23 05:33N 46°34' E 031°13'0 0.0
2016-Jun-23 04:33N 46°34' E 031°13'0 0.0
2016-Jun-23 03:33N 46°34' E 031°13'0 0.0
2016-Jun-23 02:33N 46°34' E 031°13'0 0.0
2016-Jun-23 01:33N 46°34' E 031°13'0 0.0
2016-Jun-23 00:33N 46°34' E 031°13'0 0.0
2016-Jun-22 23:33N 46°34' E 031°13'0 0.0
2016-Jun-22 22:33N 46°34' E 031°13'0 0.1
2016-Jun-22 21:33N 46°34' E 031°13'1 0.6
2016-Jun-22 20:33N 46°34' E 031°14'0 0.0
2016-Jun-22 19:33N 46°34' E 031°14'0 0.0
2016-Jun-22 18:33N 46°34' E 031°14'0 0.0
2016-Jun-22 17:33N 46°34' E 031°14'0 0.0
2016-Jun-22 14:33N 46°34' E 031°14'0 0.0
2016-Jun-22 13:33N 46°34' E 031°14'0 0.0
2016-Jun-22 12:33N 46°34' E 031°14'0 0.0
2016-Jun-22 11:33N 46°34' E 031°14'2 1.6
2016-Jun-22 10:33N 46°34' E 031°16'4 3.9
2016-Jun-22 09:32N 46°34' E 031°22'10 2.3
2016-Jun-22 05:23N 46°36' E 031°36'3 3.4
2016-Jun-22 04:34N 46°35' E 031°40'4 3.5
2016-Jun-22 03:33N 46°35' E 031°45'4 3.6
2016-Jun-22 02:33N 46°36' E 031°50'4 3.5
2016-Jun-22 01:34N 46°38' E 031°55'3 3.5
2016-Jun-22 00:34N 46°42' E 031°56'3 3.5
2016-Jun-21 23:34N 46°45' E 031°54'4 3.6
2016-Jun-21 22:33N 46°48' E 031°53'4 3.8
2016-Jun-21 21:34N 46°51' E 031°57'4 3.6
2016-Jun-21 20:34N 46°54' E 032°00'3 2.5
2016-Jun-21 19:33N 46°56' E 031°59'0 0.3
2016-Jun-21 18:31N 46°57' E 031°59'0 0.0
2016-Jun-21 17:31N 46°57' E 031°59'0 0.1
2016-Jun-21 16:30N 46°56' E 031°59'0 0.1
2016-Jun-21 15:33N 46°56' E 031°59'1 0.7
2016-Jun-21 14:33N 46°57' E 031°60'0 0.2
2016-Jun-21 13:32N 46°57' E 031°59'0 0.0
2016-Jun-21 12:32N 46°57' E 031°59'0 0.0
2016-Jun-21 11:32N 46°57' E 031°59'0 0.0
2016-Jun-21 10:32N 46°57' E 031°59'0 0.0
2016-Jun-21 09:32N 46°57' E 031°59'0 0.1
2016-Jun-21 08:33N 46°57' E 031°59'0 0.1
2016-Jun-21 07:33N 46°57' E 031°59'0 0.1
2016-Jun-21 05:34N 46°57' E 031°59'0 0.0
2016-Jun-21 04:31N 46°57' E 031°59'0 0.0
2016-Jun-21 03:31N 46°57' E 031°59'0 0.0
2016-Jun-21 02:31N 46°57' E 031°59'0 0.0
2016-Jun-21 01:34N 46°57' E 031°59'0 0.0
2016-Jun-21 00:34N 46°57' E 031°59'0 0.0
2016-Jun-20 23:34N 46°57' E 031°59'0 0.0
2016-Jun-20 22:34N 46°57' E 031°59'0 0.0
2016-Jun-20 21:34N 46°57' E 031°59'0 0.0
2016-Jun-20 20:34N 46°57' E 031°59'0 0.0
2016-Jun-20 19:31N 46°57' E 031°59'0 0.0
2016-Jun-20 18:34N 46°57' E 031°59'0 0.0
2016-Jun-20 17:34N 46°57' E 031°59'0 0.0
2016-Jun-20 16:34N 46°57' E 031°59'0 0.0
2016-Jun-20 15:31N 46°57' E 031°59'0 0.0
2016-Jun-20 14:34N 46°57' E 031°59'0 0.0
2016-Jun-20 13:34N 46°57' E 031°59'0 0.0
2016-Jun-20 12:34N 46°57' E 031°59'0 0.0
2016-Jun-20 11:34N 46°57' E 031°59'0 0.0
2016-Jun-20 10:31N 46°57' E 031°59'0 0.0
2016-Jun-20 09:31N 46°57' E 031°59'0 0.1
2016-Jun-20 08:34N 46°57' E 031°59'2 2.1
2016-Jun-20 07:33N 46°55' E 032°01'5 5.3
2016-Jun-20 06:33N 46°51' E 031°57'5 5.1
2016-Jun-20 05:33N 46°46' E 031°53'5 5.0
2016-Jun-20 04:33N 46°42' E 031°56'5 5.1
2016-Jun-20 03:33N 46°37' E 031°53'5 5.4
2016-Jun-20 02:33N 46°35' E 031°45'5 5.1
2016-Jun-20 01:33N 46°35' E 031°38'2 2.2
2016-Jun-20 00:33N 46°36' E 031°35'0 0.5
2016-Jun-19 23:33N 46°36' E 031°35'0 0.4
2016-Jun-19 22:23N 46°36' E 031°35'0 0.2
2016-Jun-19 21:33N 46°36' E 031°35'5 5.4
2016-Jun-19 20:33N 46°35' E 031°27'7 7.0
2016-Jun-19 19:33N 46°34' E 031°17'3 1.1
2016-Jun-19 17:04N 46°34' E 031°13'0 0.0
2016-Jun-19 14:13N 46°34' E 031°13'0 0.0
2016-Jun-19 11:28N 46°34' E 031°13'0 0.0
2016-Jun-19 09:25N 46°34' E 031°13'0 0.0
2016-Jun-19 08:13N 46°34' E 031°13'0 0.0
2016-Jun-19 07:28N 46°34' E 031°13'0 0.0
2016-Jun-19 06:16N 46°34' E 031°13'0 0.0
2016-Jun-19 04:31N 46°34' E 031°13'0 0.0
2016-Jun-19 03:31N 46°34' E 031°13'0 0.0
2016-Jun-19 02:31N 46°34' E 031°13'0 0.0
2016-Jun-19 01:25N 46°34' E 031°13'0 0.2
2016-Jun-19 00:22N 46°34' E 031°13'0 0.0
2016-Jun-18 23:31N 46°34' E 031°13'0 0.2
2016-Jun-18 22:22N 46°34' E 031°13'0 0.0
2016-Jun-18 21:31N 46°34' E 031°13'0 0.0
2016-Jun-18 20:25N 46°34' E 031°13'0 0.0
2016-Jun-18 19:31N 46°34' E 031°13'0 0.0
2016-Jun-18 18:28N 46°34' E 031°13'0 0.1
2016-Jun-18 17:28N 46°34' E 031°13'0 0.0
2016-Jun-18 15:21N 46°34' E 031°13'2 2.0
2016-Jun-18 14:34N 46°35' E 031°15'8 8.3
2016-Jun-18 13:33N 46°35' E 031°27'5 5.3
2016-Jun-18 12:33N 46°36' E 031°35'5 4.5
2016-Jun-18 11:31N 46°36' E 031°28'9 3.0
2016-Jun-18 08:24N 46°35' E 031°15'1 1.4
2016-Jun-18 07:31N 46°34' E 031°13'  
Track history (hours):
 
Tides and Currents Weather Stations Pressure Air Temp Water Temp Dewpoint Dewpoint Depression Visibility Wind Speed Wind Dir Waves Ship Positions

Nibulon 1

Last reported at 2016-Jun-28 04:33 UTC. Time now 2016-Jun-28 06:04 UTC.
Position N 46°57' E 031°59'.

Length 38 m; draft 2.6 m.

Type: Tug. MMSI: 272641000.

Date/timePositionNaut miles runAvg speedWind from/ knotsBaromVisibWave heightAir tempDewpointWater temp
2016-Jun-28 04:33N 46°57' E 031°59'0 0.0
2016-Jun-28 03:33N 46°57' E 031°59'0 0.0
2016-Jun-28 02:33N 46°57' E 031°59'0 0.0
2016-Jun-28 01:33N 46°57' E 031°59'0 0.1
2016-Jun-28 00:33N 46°57' E 031°59'0 0.1
2016-Jun-27 23:33N 46°57' E 031°59'0 0.0
2016-Jun-27 22:33N 46°57' E 031°59'0 0.1
2016-Jun-27 21:33N 46°57' E 031°59'0 0.0
2016-Jun-27 20:33N 46°57' E 031°59'0 0.1
2016-Jun-27 19:33N 46°57' E 031°59'0 0.2
2016-Jun-27 18:33N 46°57' E 031°59'0 0.2
2016-Jun-27 17:33N 46°57' E 031°59'0 0.1
2016-Jun-27 16:33N 46°57' E 031°59'0 0.1
2016-Jun-27 15:33N 46°57' E 031°59'0 0.1
2016-Jun-27 14:33N 46°57' E 031°59'0 0.0
2016-Jun-27 13:33N 46°57' E 031°59'0 0.0
2016-Jun-27 12:33N 46°57' E 031°59'0 0.0
2016-Jun-27 11:33N 46°57' E 031°59'0 0.0
2016-Jun-27 10:33N 46°57' E 031°59'0 0.1
2016-Jun-27 09:33N 46°57' E 031°59'0 0.2
2016-Jun-27 08:33N 46°57' E 031°59'0 0.0
2016-Jun-27 07:33N 46°57' E 031°59'0 0.0
2016-Jun-27 06:33N 46°57' E 031°59'0 0.0
2016-Jun-27 05:33N 46°57' E 031°59'0 0.2
2016-Jun-27 04:34N 46°56' E 031°59'0 0.4
2016-Jun-27 03:33N 46°56' E 031°59'3 3.5
2016-Jun-27 02:33N 46°53' E 031°59'5 4.9
2016-Jun-27 01:33N 46°49' E 031°54'4 4.3
2016-Jun-27 00:33N 46°45' E 031°54'4 4.4
2016-Jun-26 23:33N 46°41' E 031°56'5 4.6
2016-Jun-26 22:33N 46°37' E 031°52'5 4.9
2016-Jun-26 21:33N 46°35' E 031°45'5 5.0
2016-Jun-26 20:33N 46°35' E 031°38'2 2.2
2016-Jun-26 19:33N 46°36' E 031°35'4 3.8
2016-Jun-26 18:34N 46°36' E 031°30'6 6.5
2016-Jun-26 17:33N 46°34' E 031°21'5 4.8
2016-Jun-26 16:33N 46°35' E 031°14'0 0.1
2016-Jun-26 15:33N 46°35' E 031°14'1 0.6
2016-Jun-26 14:33N 46°34' E 031°13'2 2.1
2016-Jun-26 13:33N 46°34' E 031°17'4 3.9
2016-Jun-26 12:33N 46°34' E 031°22'4 3.8
2016-Jun-26 11:30N 46°36' E 031°28'3 3.4
2016-Jun-26 10:33N 46°35' E 031°32'3 2.1
2016-Jun-26 09:17N 46°37' E 031°35'3 4.4
2016-Jun-26 08:33N 46°35' E 031°31'5 5.1
2016-Jun-26 07:33N 46°35' E 031°24'6 5.9
2016-Jun-26 06:33N 46°35' E 031°15'1 1.4
2016-Jun-26 05:33N 46°34' E 031°13'0 0.0
2016-Jun-26 04:33N 46°34' E 031°13'0 0.0
2016-Jun-26 03:33N 46°34' E 031°13'0 0.0
2016-Jun-26 02:33N 46°34' E 031°13'0 0.0
2016-Jun-26 01:33N 46°34' E 031°13'0 0.0
2016-Jun-26 00:33N 46°34' E 031°13'0 0.0
2016-Jun-25 23:33N 46°34' E 031°13'0 0.0
2016-Jun-25 22:33N 46°34' E 031°13'0 0.0
2016-Jun-25 21:33N 46°34' E 031°13'0 0.0
2016-Jun-25 20:33N 46°35' E 031°13'0 0.0
2016-Jun-25 19:33N 46°35' E 031°13'0 0.0
2016-Jun-25 18:33N 46°34' E 031°13'0 0.1
2016-Jun-25 17:26N 46°34' E 031°13'3 3.2
2016-Jun-25 16:33N 46°34' E 031°17'27 3.0
2016-Jun-25 07:33N 46°45' E 031°54'4 3.6
2016-Jun-25 06:33N 46°49' E 031°54'4 4.1
2016-Jun-25 05:33N 46°52' E 031°58'4 4.0
2016-Jun-25 04:33N 46°55' E 032°01'2 2.0
2016-Jun-25 03:33N 46°56' E 031°59'0 0.2
2016-Jun-25 02:31N 46°57' E 031°59'0 0.0
2016-Jun-25 01:31N 46°57' E 031°59'0 0.0
2016-Jun-25 00:31N 46°57' E 031°59'0 0.0
2016-Jun-24 23:31N 46°57' E 031°59'0 0.0
2016-Jun-24 22:32N 46°57' E 031°59'0 0.0
2016-Jun-24 21:32N 46°57' E 031°59'0 0.0
2016-Jun-24 20:32N 46°57' E 031°59'0 0.0
2016-Jun-24 19:32N 46°57' E 031°59'0 0.5
2016-Jun-24 18:33N 46°56' E 031°59'0 0.1
2016-Jun-24 17:33N 46°56' E 031°59'0 0.0
2016-Jun-24 16:33N 46°56' E 031°59'0 0.0
2016-Jun-24 15:33N 46°56' E 031°59'0 0.0
2016-Jun-24 14:33N 46°56' E 031°59'0 0.3
2016-Jun-24 13:30N 46°57' E 031°59'0 0.0
2016-Jun-24 12:33N 46°57' E 031°59'0 0.0
2016-Jun-24 11:15N 46°57' E 031°59'0 0.2
2016-Jun-24 10:31N 46°57' E 031°59'0 0.0
2016-Jun-24 09:31N 46°57' E 031°59'0 0.0
2016-Jun-24 08:31N 46°57' E 031°59'0 0.4
2016-Jun-24 07:31N 46°56' E 031°59'0 0.1
2016-Jun-24 04:33N 46°57' E 031°59'0 0.0
2016-Jun-24 03:30N 46°57' E 031°59'0 0.0
2016-Jun-24 02:33N 46°57' E 031°59'0 0.0
2016-Jun-24 01:33N 46°57' E 031°59'0 0.0
2016-Jun-24 00:33N 46°57' E 031°59'0 0.0
2016-Jun-23 23:30N 46°57' E 031°59'0 0.0
2016-Jun-23 22:33N 46°57' E 031°59'0 0.0
2016-Jun-23 21:33N 46°57' E 031°59'0 0.0
2016-Jun-23 20:33N 46°57' E 031°59'0 0.0
2016-Jun-23 19:33N 46°57' E 031°59'2 1.8
2016-Jun-23 18:33N 46°56' E 032°01'5 5.0
2016-Jun-23 17:33N 46°51' E 031°57'5 4.9
2016-Jun-23 16:33N 46°47' E 031°53'5 4.7
2016-Jun-23 15:33N 46°43' E 031°56'5 4.9
2016-Jun-23 14:33N 46°38' E 031°55'5 4.9
2016-Jun-23 13:33N 46°36' E 031°49'5 4.6
2016-Jun-23 12:29N 46°35' E 031°41'4 4.7
2016-Jun-23 11:33N 46°36' E 031°35'4 3.5
2016-Jun-23 10:33N 46°36' E 031°30'4 4.3
2016-Jun-23 09:33N 46°35' E 031°24'5 4.7
2016-Jun-23 08:33N 46°34' E 031°17'3 2.7
2016-Jun-23 07:34N 46°34' E 031°13'1 0.3
2016-Jun-23 05:33N 46°34' E 031°13'0 0.0
2016-Jun-23 04:33N 46°34' E 031°13'0 0.0
2016-Jun-23 03:33N 46°34' E 031°13'0 0.0
2016-Jun-23 02:33N 46°34' E 031°13'0 0.0
2016-Jun-23 01:33N 46°34' E 031°13'0 0.0
2016-Jun-23 00:33N 46°34' E 031°13'0 0.0
2016-Jun-22 23:33N 46°34' E 031°13'0 0.0
2016-Jun-22 22:33N 46°34' E 031°13'0 0.1
2016-Jun-22 21:33N 46°34' E 031°13'1 0.6
2016-Jun-22 20:33N 46°34' E 031°14'0 0.0
2016-Jun-22 19:33N 46°34' E 031°14'0 0.0
2016-Jun-22 18:33N 46°34' E 031°14'0 0.0
2016-Jun-22 17:33N 46°34' E 031°14'0 0.0
2016-Jun-22 14:33N 46°34' E 031°14'0 0.0
2016-Jun-22 13:33N 46°34' E 031°14'0 0.0
2016-Jun-22 12:33N 46°34' E 031°14'0 0.0
2016-Jun-22 11:33N 46°34' E 031°14'2 1.6
2016-Jun-22 10:33N 46°34' E 031°16'4 3.9
2016-Jun-22 09:32N 46°34' E 031°22'10 2.3
2016-Jun-22 05:23N 46°36' E 031°36'3 3.4
2016-Jun-22 04:34N 46°35' E 031°40'4 3.5
2016-Jun-22 03:33N 46°35' E 031°45'4 3.6
2016-Jun-22 02:33N 46°36' E 031°50'4 3.5
2016-Jun-22 01:34N 46°38' E 031°55'3 3.5
2016-Jun-22 00:34N 46°42' E 031°56'3 3.5
2016-Jun-21 23:34N 46°45' E 031°54'4 3.6
2016-Jun-21 22:33N 46°48' E 031°53'4 3.8
2016-Jun-21 21:34N 46°51' E 031°57'4 3.6
2016-Jun-21 20:34N 46°54' E 032°00'3 2.5
2016-Jun-21 19:33N 46°56' E 031°59'0 0.3
2016-Jun-21 18:31N 46°57' E 031°59'0 0.0
2016-Jun-21 17:31N 46°57' E 031°59'0 0.1
2016-Jun-21 16:30N 46°56' E 031°59'0 0.1
2016-Jun-21 15:33N 46°56' E 031°59'1 0.7
2016-Jun-21 14:33N 46°57' E 031°60'0 0.2
2016-Jun-21 13:32N 46°57' E 031°59'0 0.0
2016-Jun-21 12:32N 46°57' E 031°59'0 0.0
2016-Jun-21 11:32N 46°57' E 031°59'0 0.0
2016-Jun-21 10:32N 46°57' E 031°59'0 0.0
2016-Jun-21 09:32N 46°57' E 031°59'0 0.1
2016-Jun-21 08:33N 46°57' E 031°59'0 0.1
2016-Jun-21 07:33N 46°57' E 031°59'0 0.1
2016-Jun-21 05:34N 46°57' E 031°59'0 0.0
2016-Jun-21 04:31N 46°57' E 031°59'0 0.0
2016-Jun-21 03:31N 46°57' E 031°59'0 0.0
2016-Jun-21 02:31N 46°57' E 031°59'0 0.0
2016-Jun-21 01:34N 46°57' E 031°59'0 0.0
2016-Jun-21 00:34N 46°57' E 031°59'0 0.0
2016-Jun-20 23:34N 46°57' E 031°59'0 0.0
2016-Jun-20 22:34N 46°57' E 031°59'0 0.0
2016-Jun-20 21:34N 46°57' E 031°59'0 0.0
2016-Jun-20 20:34N 46°57' E 031°59'0 0.0
2016-Jun-20 19:31N 46°57' E 031°59'0 0.0
2016-Jun-20 18:34N 46°57' E 031°59'0 0.0
2016-Jun-20 17:34N 46°57' E 031°59'0 0.0
2016-Jun-20 16:34N 46°57' E 031°59'0 0.0
2016-Jun-20 15:31N 46°57' E 031°59'0 0.0
2016-Jun-20 14:34N 46°57' E 031°59'0 0.0
2016-Jun-20 13:34N 46°57' E 031°59'0 0.0
2016-Jun-20 12:34N 46°57' E 031°59'0 0.0
2016-Jun-20 11:34N 46°57' E 031°59'0 0.0
2016-Jun-20 10:31N 46°57' E 031°59'0 0.0
2016-Jun-20 09:31N 46°57' E 031°59'0 0.1
2016-Jun-20 08:34N 46°57' E 031°59'2 2.1
2016-Jun-20 07:33N 46°55' E 032°01'5 5.3
2016-Jun-20 06:33N 46°51' E 031°57'5 5.1
2016-Jun-20 05:33N 46°46' E 031°53'5 5.0
2016-Jun-20 04:33N 46°42' E 031°56'5 5.1
2016-Jun-20 03:33N 46°37' E 031°53'5 5.4
2016-Jun-20 02:33N 46°35' E 031°45'5 5.1
2016-Jun-20 01:33N 46°35' E 031°38'2 2.2
2016-Jun-20 00:33N 46°36' E 031°35'0 0.5
2016-Jun-19 23:33N 46°36' E 031°35'0 0.4
2016-Jun-19 22:23N 46°36' E 031°35'0 0.2
2016-Jun-19 21:33N 46°36' E 031°35'5 5.4
2016-Jun-19 20:33N 46°35' E 031°27'7 7.0
2016-Jun-19 19:33N 46°34' E 031°17'3 1.1
2016-Jun-19 17:04N 46°34' E 031°13'0 0.0
2016-Jun-19 14:13N 46°34' E 031°13'0 0.0
2016-Jun-19 11:28N 46°34' E 031°13'0 0.0
2016-Jun-19 09:25N 46°34' E 031°13'0 0.0
2016-Jun-19 08:13N 46°34' E 031°13'0 0.0
2016-Jun-19 07:28N 46°34' E 031°13'0 0.0
2016-Jun-19 06:16N 46°34' E 031°13'0 0.0
2016-Jun-19 04:31N 46°34' E 031°13'0 0.0
2016-Jun-19 03:31N 46°34' E 031°13'0 0.0
2016-Jun-19 02:31N 46°34' E 031°13'0 0.0
2016-Jun-19 01:25N 46°34' E 031°13'0 0.2
2016-Jun-19 00:22N 46°34' E 031°13'0 0.0
2016-Jun-18 23:31N 46°34' E 031°13'0 0.2
2016-Jun-18 22:22N 46°34' E 031°13'0 0.0
2016-Jun-18 21:31N 46°34' E 031°13'0 0.0
2016-Jun-18 20:25N 46°34' E 031°13'0 0.0
2016-Jun-18 19:31N 46°34' E 031°13'0 0.0
2016-Jun-18 18:28N 46°34' E 031°13'0 0.1
2016-Jun-18 17:28N 46°34' E 031°13'0 0.0
2016-Jun-18 15:21N 46°34' E 031°13'2 2.0
2016-Jun-18 14:34N 46°35' E 031°15'8 8.3
2016-Jun-18 13:33N 46°35' E 031°27'5 5.3
2016-Jun-18 12:33N 46°36' E 031°35'5 4.5
2016-Jun-18 11:31N 46°36' E 031°28'9 3.0
2016-Jun-18 08:24N 46°35' E 031°15'1 1.4
2016-Jun-18 07:31N 46°34' E 031°13'  

Dump ship's entire track history